首页
METAR-TAF:

METAR-TAF

机场 :

Harlan Municipal Airport

Harlan, 艾奥瓦州, 美国

纬度: 41-35-04N, 经度: 095-20-23W, 海拔: 375米

当前天气观测

该预报发布于20分钟前的01:55 UTC
静风
温度 -1°C
湿度 100%
气压 1013 hPa
能見度: 16.1公里
天空无云

METAR: KHNR 180155Z AUTO 00000KT 10SM CLR M01/M01 A2992 RMK AO2

时间: 20:15 (02:15 UTC)


TAF: 丢失

超过4000个机场的气象观测和天气预报(METAR&TAF报告)。

可查询的气象台以黄色和红色小点在地图上表示。

将鼠标移到小点上方,可查看气象台名称。

然后点击查看天气观测和预报。

如需切换地图:点击带黑十字的绿色按钮放大地图;点击带横线的绿色按钮缩小地图;或者点击绿色箭头查看邻近地区的地图。


METAR-TAF: